createdAt,value
2023-01-11T00:01:04.059Z,83.27
2023-01-11T00:03:31.425Z,82.90
2023-01-11T00:05:58.922Z,83.39
2023-01-11T00:08:27.039Z,83.46
2023-01-11T00:10:54.182Z,83.33
2023-01-11T00:13:21.167Z,83.58
2023-01-11T00:15:47.927Z,83.55
2023-01-11T00:18:14.632Z,83.83
2023-01-11T00:20:41.666Z,83.67
2023-01-11T00:23:08.720Z,83.67
2023-01-11T00:25:35.635Z,83.59
2023-01-11T00:28:02.340Z,83.82
2023-01-11T00:30:29.077Z,83.98
2023-01-11T00:32:57.093Z,83.98
2023-01-11T00:35:24.227Z,83.77
2023-01-11T00:37:53.259Z,83.74
2023-01-11T00:40:20.500Z,83.68
2023-01-11T00:43:05.642Z,83.70
2023-01-11T00:45:50.822Z,83.92
2023-01-11T00:48:17.583Z,83.95
2023-01-11T00:50:44.298Z,84.17
2023-01-11T00:53:11.159Z,84.07
2023-01-11T00:55:37.949Z,84.07
2023-01-11T00:58:04.764Z,83.88
2023-01-11T01:00:31.509Z,84.12
2023-01-11T01:02:58.359Z,84.19
2023-01-11T01:05:25.191Z,84.45
2023-01-11T01:07:51.956Z,84.38
2023-01-11T01:10:18.896Z,84.27
2023-01-11T01:13:05.064Z,83.90
2023-01-11T01:15:32.826Z,84.09
2023-01-11T01:17:59.720Z,83.87
2023-01-11T01:20:26.599Z,84.01
2023-01-11T01:22:53.415Z,84.17
2023-01-11T01:25:20.173Z,83.94
2023-01-11T01:27:47.053Z,83.81
2023-01-11T01:30:15.671Z,83.70
2023-01-11T01:32:42.754Z,83.47
2023-01-11T01:35:09.642Z,83.43
2023-01-11T01:37:36.374Z,83.36
2023-01-11T01:40:03.912Z,82.95
2023-01-11T01:42:30.657Z,82.73
2023-01-11T01:45:01.423Z,82.89
2023-01-11T01:47:32.942Z,83.08
2023-01-11T01:50:03.388Z,83.21
2023-01-11T01:52:31.644Z,83.27
2023-01-11T01:55:00.247Z,82.76
2023-01-11T01:57:31.595Z,82.72
2023-01-11T02:00:01.873Z,82.52
2023-01-11T02:02:28.768Z,82.62
2023-01-11T02:04:56.572Z,82.68
2023-01-11T02:07:27.735Z,82.24
2023-01-11T02:10:06.543Z,82.25
2023-01-11T02:12:57.210Z,82.74
2023-01-11T02:15:24.259Z,82.67
2023-01-11T02:17:51.434Z,82.85
2023-01-11T02:20:30.024Z,82.92
2023-01-11T02:23:17.841Z,82.69
2023-01-11T02:26:15.952Z,83.21
2023-01-11T02:29:16.560Z,82.84
2023-01-11T02:32:25.046Z,83.24
2023-01-11T02:35:35.299Z,83.45
2023-01-11T02:38:09.985Z,83.63
2023-01-11T02:41:10.781Z,83.49
2023-01-11T02:44:06.116Z,83.52
2023-01-11T02:46:44.517Z,83.94
2023-01-11T02:49:14.196Z,84.07
2023-01-11T02:51:44.507Z,83.98
2023-01-11T02:54:12.103Z,84.38
2023-01-11T02:56:44.258Z,84.57
2023-01-11T02:59:13.644Z,84.38
2023-01-11T03:01:47.656Z,84.29
2023-01-11T03:04:34.627Z,84.59
2023-01-11T03:07:29.293Z,84.71
2023-01-11T03:10:19.845Z,84.54
2023-01-11T03:12:52.679Z,84.62
2023-01-11T03:15:49.715Z,84.68
2023-01-11T03:18:27.113Z,84.74
2023-01-11T03:21:12.822Z,84.92
2023-01-11T03:23:49.451Z,84.44
2023-01-11T03:26:30.357Z,84.29
2023-01-11T03:29:19.429Z,84.50
2023-01-11T03:32:21.160Z,84.69
2023-01-11T03:35:01.613Z,84.52
2023-01-11T03:37:37.361Z,84.35
2023-01-11T03:40:07.105Z,84.65
2023-01-11T03:42:34.244Z,84.74
2023-01-11T03:45:01.607Z,84.53
2023-01-11T03:47:30.323Z,84.85
2023-01-11T03:50:05.096Z,84.70
2023-01-11T03:52:35.936Z,84.91
2023-01-11T03:55:04.885Z,84.72
2023-01-11T03:57:33.939Z,84.59
2023-01-11T04:00:00.639Z,84.33
2023-01-11T04:02:33.979Z,83.72
2023-01-11T04:05:00.981Z,83.78
2023-01-11T04:07:28.346Z,83.76
2023-01-11T04:09:55.091Z,84.60
2023-01-11T04:12:21.779Z,84.35
2023-01-11T04:14:48.473Z,85.10
2023-01-11T04:17:15.166Z,85.70
2023-01-11T04:19:41.911Z,85.78
2023-01-11T04:22:08.637Z,85.52
2023-01-11T04:24:35.346Z,85.60
2023-01-11T04:27:02.093Z,86.26
2023-01-11T04:29:28.830Z,86.32
2023-01-11T04:31:55.713Z,86.36
2023-01-11T04:34:22.478Z,86.23
2023-01-11T04:36:49.179Z,86.26
2023-01-11T04:39:15.886Z,86.81
2023-01-11T04:42:01.314Z,86.59
2023-01-11T04:44:27.989Z,86.31
2023-01-11T04:46:54.672Z,86.29
2023-01-11T04:49:21.370Z,86.06
2023-01-11T04:51:48.191Z,86.26
2023-01-11T04:54:16.153Z,86.22
2023-01-11T04:56:42.855Z,86.41
2023-01-11T04:59:09.565Z,86.32
2023-01-11T05:01:36.495Z,86.64
2023-01-11T05:04:03.311Z,86.72
2023-01-11T05:06:30.179Z,86.12
2023-01-11T05:08:56.978Z,86.42
2023-01-11T05:11:23.718Z,86.55
2023-01-11T05:13:50.990Z,86.40
2023-01-11T05:16:20.601Z,86.58
2023-01-11T05:18:50.116Z,86.85
2023-01-11T05:21:20.245Z,86.84
2023-01-11T05:23:47.401Z,86.90
2023-01-11T05:26:20.036Z,86.32
2023-01-11T05:28:47.026Z,86.17
2023-01-11T05:31:13.845Z,86.62
2023-01-11T05:33:40.698Z,86.03
2023-01-11T05:36:10.836Z,85.60
2023-01-11T05:38:37.671Z,86.14
2023-01-11T05:41:10.201Z,86.39
2023-01-11T05:43:58.024Z,86.58
2023-01-11T05:46:26.358Z,86.08
2023-01-11T05:48:54.853Z,85.50
2023-01-11T05:51:22.744Z,86.04
2023-01-11T05:53:49.577Z,85.88
2023-01-11T05:56:16.269Z,86.24
2023-01-11T05:58:42.932Z,86.30
2023-01-11T06:01:12.425Z,86.62
2023-01-11T06:03:39.218Z,86.36
2023-01-11T06:06:06.205Z,86.97
2023-01-11T06:08:33.157Z,87.41
2023-01-11T06:11:00.193Z,87.47
2023-01-11T06:13:27.243Z,87.75
2023-01-11T06:15:54.504Z,87.49
2023-01-11T06:18:21.725Z,87.57
2023-01-11T06:20:52.451Z,87.31
2023-01-11T06:23:19.347Z,87.36
2023-01-11T06:25:46.665Z,87.00
2023-01-11T06:28:13.842Z,88.77
2023-01-11T06:30:40.996Z,90.67
2023-01-11T06:33:08.088Z,89.14
2023-01-11T06:35:39.697Z,89.07
2023-01-11T06:38:08.454Z,90.35
2023-01-11T06:40:35.843Z,90.13
2023-01-11T06:43:02.735Z,87.89
2023-01-11T06:45:30.453Z,85.39
2023-01-11T06:47:57.599Z,84.55
2023-01-11T06:50:24.671Z,84.73
2023-01-11T06:52:59.144Z,84.79
2023-01-11T06:55:27.884Z,85.22
2023-01-11T06:57:55.225Z,85.46
2023-01-11T07:00:22.617Z,85.49
2023-01-11T07:02:49.541Z,85.38
2023-01-11T07:05:19.187Z,85.33
2023-01-11T07:07:46.473Z,85.04
2023-01-11T07:10:15.185Z,84.77
2023-01-11T07:12:42.356Z,84.36
2023-01-11T07:15:10.329Z,84.22
2023-01-11T07:17:37.147Z,83.83
2023-01-11T07:20:05.514Z,83.33
2023-01-11T07:22:36.173Z,82.93
2023-01-11T07:25:04.717Z,82.58
2023-01-11T07:27:31.786Z,82.40
2023-01-11T07:30:01.308Z,81.76
2023-01-11T07:32:28.720Z,81.22
2023-01-11T07:34:56.174Z,80.47
2023-01-11T07:37:28.953Z,80.05
2023-01-11T07:39:56.167Z,78.08
2023-01-11T07:42:41.554Z,76.92
2023-01-11T07:45:08.765Z,75.30
2023-01-11T07:47:35.486Z,73.72
2023-01-11T07:50:02.246Z,72.55
2023-01-11T07:52:29.045Z,71.49
2023-01-11T07:55:02.140Z,72.37
2023-01-11T07:57:29.981Z,70.08
2023-01-11T07:59:56.860Z,68.97
2023-01-11T08:02:25.321Z,67.97
2023-01-11T08:04:52.189Z,66.84
2023-01-11T08:07:18.922Z,65.08
2023-01-11T08:09:45.646Z,64.19
2023-01-11T08:12:30.869Z,63.76
2023-01-11T08:15:00.449Z,62.57
2023-01-11T08:17:27.614Z,61.03
2023-01-11T08:19:55.914Z,60.93
2023-01-11T08:22:22.844Z,60.59
2023-01-11T08:24:49.828Z,59.08
2023-01-11T08:27:16.549Z,58.08
2023-01-11T08:29:44.321Z,57.97
2023-01-11T08:32:12.321Z,56.63
2023-01-11T08:34:39.436Z,55.95
2023-01-11T08:37:06.279Z,55.54
2023-01-11T08:39:33.419Z,55.02
2023-01-11T08:42:00.636Z,54.05
2023-01-11T08:44:34.993Z,52.71
2023-01-11T08:47:03.179Z,52.67
2023-01-11T08:49:30.638Z,51.87
2023-01-11T08:51:57.691Z,51.50
2023-01-11T08:54:25.146Z,51.43
2023-01-11T08:56:52.010Z,50.53
2023-01-11T08:59:20.057Z,50.32
2023-01-11T09:01:47.288Z,49.32
2023-01-11T09:04:24.109Z,48.99
2023-01-11T09:06:51.875Z,48.81
2023-01-11T09:09:18.615Z,48.43
2023-01-11T09:11:54.661Z,48.49
2023-01-11T09:14:22.623Z,48.22
2023-01-11T09:16:51.779Z,49.22
2023-01-11T09:19:18.592Z,48.02
2023-01-11T09:21:46.466Z,48.13
2023-01-11T09:24:14.078Z,47.29
2023-01-11T09:26:43.336Z,47.14
2023-01-11T09:29:11.256Z,46.71
2023-01-11T09:31:42.870Z,46.74
2023-01-11T09:34:12.867Z,46.23
2023-01-11T09:36:40.601Z,46.12
2023-01-11T09:39:15.074Z,45.36
2023-01-11T09:42:19.265Z,43.52
2023-01-11T09:44:53.115Z,43.81
2023-01-11T09:48:04.788Z,43.34
2023-01-11T09:50:41.737Z,42.18
2023-01-11T09:53:17.518Z,42.14
2023-01-11T09:55:46.920Z,41.67
2023-01-11T09:58:33.410Z,42.24
2023-01-11T10:01:10.775Z,40.56
2023-01-11T10:04:06.284Z,40.56
2023-01-11T10:07:21.292Z,40.30
2023-01-11T10:18:42.660Z,39.80
2023-01-11T10:19:18.524Z,39.94
2023-01-11T10:21:50.723Z,38.96
2023-01-11T10:24:23.880Z,38.54
2023-01-11T10:26:51.644Z,37.79
2023-01-11T10:29:59.344Z,37.68
2023-01-11T10:32:59.142Z,37.30
2023-01-11T10:35:48.996Z,36.84
2023-01-11T10:38:47.320Z,36.70
2023-01-11T10:41:25.836Z,36.76
2023-01-11T10:44:10.081Z,37.12
2023-01-11T10:46:44.838Z,36.36
2023-01-11T10:49:50.307Z,35.63
2023-01-11T10:52:41.511Z,36.35
2023-01-11T10:55:17.785Z,36.11
2023-01-11T10:58:01.240Z,35.94
2023-01-11T11:00:39.483Z,35.41
2023-01-11T11:03:39.038Z,35.16
2023-01-11T11:06:33.496Z,34.28
2023-01-11T11:09:35.529Z,33.74
2023-01-11T11:12:24.214Z,32.61
2023-01-11T11:15:46.294Z,32.83
2023-01-11T11:18:18.656Z,33.33
2023-01-11T11:20:47.464Z,34.23
2023-01-11T11:23:21.959Z,33.27
2023-01-11T11:25:51.817Z,34.97
2023-01-11T11:28:30.595Z,35.99
2023-01-11T11:31:03.180Z,36.43
2023-01-11T11:33:38.326Z,36.73
2023-01-11T11:36:12.858Z,36.00
2023-01-11T11:38:42.505Z,34.62
2023-01-11T11:41:15.016Z,33.77
2023-01-11T11:43:43.644Z,33.81
2023-01-11T11:46:20.180Z,34.12
2023-01-11T11:49:15.243Z,33.48
2023-01-11T11:51:43.460Z,33.67
2023-01-11T11:54:31.661Z,32.84
2023-01-11T11:57:01.171Z,33.09
2023-01-11T11:59:29.992Z,32.99
2023-01-11T12:02:00.975Z,35.09
2023-01-11T12:04:47.509Z,35.33
2023-01-11T12:07:22.414Z,34.68
2023-01-11T12:09:55.055Z,33.57
2023-01-11T12:12:25.897Z,32.74
2023-01-11T12:15:07.962Z,33.42
2023-01-11T12:17:35.115Z,34.19
2023-01-11T12:20:02.024Z,35.39
2023-01-11T12:22:29.141Z,36.04
2023-01-11T12:25:08.316Z,36.93
2023-01-11T12:27:55.319Z,36.56
2023-01-11T12:30:27.140Z,35.88
2023-01-11T12:33:12.573Z,34.52
2023-01-11T12:35:41.955Z,34.49
2023-01-11T12:38:18.127Z,33.96
2023-01-11T12:41:04.312Z,34.53
2023-01-11T12:43:44.458Z,34.83
2023-01-11T12:46:34.394Z,35.07
2023-01-11T12:49:16.247Z,34.44
2023-01-11T12:52:20.547Z,35.03
2023-01-11T12:55:20.789Z,37.45
2023-01-11T12:58:08.889Z,38.59
2023-01-11T13:00:57.128Z,39.95
2023-01-11T13:03:48.479Z,40.09
2023-01-11T13:06:21.396Z,40.94
2023-01-11T13:09:03.257Z,42.13
2023-01-11T13:11:57.593Z,41.62
2023-01-11T13:14:49.597Z,41.09
2023-01-11T13:17:22.253Z,39.83
2023-01-11T13:20:16.935Z,40.82
2023-01-11T13:22:47.962Z,41.46
2023-01-11T13:25:18.930Z,39.43
2023-01-11T13:27:46.518Z,38.86
2023-01-11T13:30:14.732Z,38.04
2023-01-11T13:32:43.227Z,36.69
2023-01-11T13:35:24.738Z,37.49
2023-01-11T13:37:58.752Z,35.67
2023-01-11T13:40:36.118Z,36.79
2023-01-11T13:43:10.138Z,35.73
2023-01-11T13:45:48.712Z,37.35
2023-01-11T13:48:29.860Z,36.93
2023-01-11T13:51:04.585Z,37.25
2023-01-11T13:53:42.537Z,40.13
2023-01-11T13:56:18.843Z,43.48
2023-01-11T13:59:04.135Z,46.04
2023-01-11T14:01:48.040Z,46.60
2023-01-11T14:04:21.310Z,45.65
2023-01-11T14:07:13.069Z,46.95
2023-01-11T14:09:53.937Z,48.94
2023-01-11T14:12:32.617Z,48.88
2023-01-11T14:15:02.131Z,50.05
2023-01-11T14:18:09.358Z,50.91
2023-01-11T14:21:19.207Z,54.32
2023-01-11T14:23:55.242Z,55.03
2023-01-11T14:26:59.695Z,53.11
2023-01-11T14:29:29.448Z,52.72
2023-01-11T14:32:32.887Z,53.66
2023-01-11T14:35:37.391Z,54.65
2023-01-11T14:38:31.861Z,56.06
2023-01-11T14:41:11.697Z,57.11
2023-01-11T14:44:23.492Z,58.09
2023-01-11T14:47:35.442Z,58.79
2023-01-11T14:50:14.336Z,59.49
2023-01-11T14:52:41.661Z,60.27
2023-01-11T14:55:18.077Z,61.15
2023-01-11T14:58:01.441Z,62.05
2023-01-11T15:00:28.161Z,62.36
2023-01-11T15:03:00.755Z,62.97
2023-01-11T15:05:33.567Z,63.71
2023-01-11T15:08:31.526Z,64.10
2023-01-11T15:10:59.902Z,65.16
2023-01-11T15:13:45.539Z,65.78
2023-01-11T15:16:37.960Z,66.33
2023-01-11T15:19:07.131Z,67.21
2023-01-11T15:21:40.691Z,67.99
2023-01-11T15:24:22.232Z,68.46
2023-01-11T15:26:49.314Z,69.19
2023-01-11T15:29:42.695Z,69.53
2023-01-11T15:32:30.163Z,70.11
2023-01-11T15:35:36.203Z,70.69
2023-01-11T15:38:13.700Z,70.73
2023-01-11T15:40:46.538Z,71.36
2023-01-11T15:43:32.050Z,71.19
2023-01-11T15:46:49.669Z,71.63
2023-01-11T15:49:41.841Z,71.81
2023-01-11T15:52:39.445Z,72.36
2023-01-11T15:55:21.153Z,72.47
2023-01-11T15:58:32.216Z,73.10
2023-01-11T16:00:59.109Z,73.66
2023-01-11T16:03:44.969Z,74.14
2023-01-11T16:06:47.664Z,74.77
2023-01-11T16:09:31.070Z,75.48
2023-01-11T16:12:23.275Z,75.99
2023-01-11T16:15:01.912Z,76.30
2023-01-11T16:17:29.457Z,76.38
2023-01-11T16:19:57.112Z,77.07
2023-01-11T16:22:28.286Z,76.58
2023-01-11T16:25:01.407Z,76.57
2023-01-11T16:27:32.303Z,76.44
2023-01-11T16:29:59.300Z,75.86
2023-01-11T16:32:33.889Z,76.20
2023-01-11T16:35:01.834Z,76.49
2023-01-11T16:37:35.129Z,76.67
2023-01-11T16:40:11.259Z,77.11
2023-01-11T16:43:00.837Z,77.08
2023-01-11T16:45:45.055Z,77.41
2023-01-11T16:48:16.124Z,77.45
2023-01-11T16:50:58.637Z,76.83
2023-01-11T16:53:26.810Z,76.62
2023-01-11T16:56:02.941Z,77.37
2023-01-11T16:58:32.527Z,77.36
2023-01-11T17:01:04.769Z,77.08
2023-01-11T17:03:35.208Z,77.54
2023-01-11T17:06:08.143Z,77.84
2023-01-11T17:08:42.712Z,77.95
2023-01-11T17:11:32.876Z,77.91
2023-01-11T17:14:38.535Z,78.26
2023-01-11T17:17:07.840Z,78.47
2023-01-11T17:19:36.950Z,78.90
2023-01-11T17:22:13.451Z,79.14
2023-01-11T17:24:43.121Z,79.29
2023-01-11T17:27:18.372Z,79.01
2023-01-11T17:29:47.372Z,78.80
2023-01-11T17:32:32.873Z,79.15
2023-01-11T17:35:02.375Z,79.30
2023-01-11T17:37:29.266Z,79.30
2023-01-11T17:39:57.884Z,79.80
2023-01-11T17:42:43.780Z,79.71
2023-01-11T17:45:24.837Z,80.12
2023-01-11T17:47:53.232Z,80.04
2023-01-11T17:50:22.382Z,79.78
2023-01-11T17:52:54.704Z,79.66
2023-01-11T17:55:25.391Z,79.78
2023-01-11T17:58:19.279Z,80.06
2023-01-11T18:01:13.695Z,80.93
2023-01-11T18:03:49.762Z,80.77
2023-01-11T18:06:35.761Z,80.84
2023-01-11T18:09:18.538Z,80.63
2023-01-11T18:11:45.385Z,80.84
2023-01-11T18:14:27.293Z,80.53
2023-01-11T18:17:01.253Z,80.03
2023-01-11T18:19:54.302Z,80.63
2023-01-11T18:22:37.112Z,80.44
2023-01-11T18:25:39.567Z,80.74
2023-01-11T18:28:12.218Z,80.73
2023-01-11T18:30:41.170Z,80.89
2023-01-11T18:33:13.339Z,80.89
2023-01-11T18:35:44.420Z,80.48
2023-01-11T18:38:17.888Z,80.47
2023-01-11T18:40:45.848Z,80.23
2023-01-11T18:43:13.025Z,80.37
2023-01-11T18:45:41.250Z,81.11
2023-01-11T18:48:14.965Z,80.58
2023-01-11T18:50:42.778Z,80.33
2023-01-11T18:53:13.925Z,81.48
2023-01-11T18:55:41.065Z,81.52
2023-01-11T18:58:09.879Z,81.59
2023-01-11T19:00:37.221Z,81.87
2023-01-11T19:03:05.053Z,80.94
2023-01-11T19:05:31.930Z,81.09
2023-01-11T19:07:58.802Z,81.10
2023-01-11T19:10:26.770Z,82.19
2023-01-11T19:12:53.585Z,82.56
2023-01-11T19:15:21.000Z,82.58
2023-01-11T19:17:48.100Z,83.35
2023-01-11T19:20:15.311Z,83.20
2023-01-11T19:22:42.371Z,82.56
2023-01-11T19:25:11.476Z,82.03
2023-01-11T19:27:38.464Z,82.57
2023-01-11T19:30:06.555Z,83.08
2023-01-11T19:32:33.955Z,83.35
2023-01-11T19:35:01.450Z,83.36
2023-01-11T19:37:30.060Z,83.54
2023-01-11T19:39:57.018Z,83.42
2023-01-11T19:42:23.930Z,83.42
2023-01-11T19:44:51.452Z,82.96
2023-01-11T19:47:18.815Z,82.55
2023-01-11T19:49:45.580Z,82.73
2023-01-11T19:52:18.832Z,82.76
2023-01-11T19:54:46.888Z,82.89
2023-01-11T19:57:17.871Z,82.44
2023-01-11T19:59:45.106Z,82.20
2023-01-11T20:02:12.949Z,82.56
2023-01-11T20:04:40.288Z,82.68
2023-01-11T20:07:08.088Z,83.16
2023-01-11T20:09:37.778Z,82.74
2023-01-11T20:12:15.985Z,82.50
2023-01-11T20:14:44.533Z,83.27
2023-01-11T20:17:11.876Z,83.54
2023-01-11T20:19:38.790Z,83.44
2023-01-11T20:22:05.777Z,83.02
2023-01-11T20:24:32.547Z,82.69
2023-01-11T20:27:01.188Z,82.83
2023-01-11T20:29:28.090Z,82.31
2023-01-11T20:31:55.762Z,82.02
2023-01-11T20:34:22.724Z,82.36
2023-01-11T20:36:49.760Z,83.12
2023-01-11T20:39:17.513Z,83.10
2023-01-11T20:41:47.211Z,82.22
2023-01-11T20:44:32.101Z,82.38
2023-01-11T20:46:59.511Z,82.63
2023-01-11T20:49:28.940Z,82.96
2023-01-11T20:51:56.445Z,82.97
2023-01-11T20:54:23.335Z,83.05
2023-01-11T20:56:50.511Z,82.83
2023-01-11T20:59:20.178Z,83.41
2023-01-11T21:01:48.345Z,83.21
2023-01-11T21:04:16.498Z,83.05
2023-01-11T21:06:45.458Z,83.83
2023-01-11T21:09:14.759Z,83.87
2023-01-11T21:11:41.801Z,83.28
2023-01-11T21:14:12.127Z,83.17
2023-01-11T21:16:43.010Z,83.00
2023-01-11T21:19:14.607Z,83.10
2023-01-11T21:21:42.012Z,83.67
2023-01-11T21:24:12.377Z,84.19
2023-01-11T21:26:39.290Z,84.22
2023-01-11T21:29:06.286Z,84.45
2023-01-11T21:31:34.808Z,83.90
2023-01-11T21:34:02.289Z,83.92
2023-01-11T21:36:30.568Z,84.12
2023-01-11T21:38:58.595Z,84.11
2023-01-11T21:41:46.346Z,84.21
2023-01-11T21:44:14.124Z,84.50
2023-01-11T21:46:41.171Z,84.62
2023-01-11T21:49:08.142Z,84.34
2023-01-11T21:51:35.355Z,84.33
2023-01-11T21:54:10.730Z,84.20
2023-01-11T21:56:37.916Z,84.23
2023-01-11T21:59:04.750Z,83.17
2023-01-11T22:01:31.689Z,83.28
2023-01-11T22:03:58.510Z,82.98
2023-01-11T22:06:25.304Z,83.33
2023-01-11T22:08:52.391Z,83.85
2023-01-11T22:11:19.178Z,84.16
2023-01-11T22:13:45.956Z,84.16
2023-01-11T22:16:17.633Z,83.73
2023-01-11T22:18:45.501Z,83.37
2023-01-11T22:21:14.380Z,83.52
2023-01-11T22:23:41.641Z,84.22
2023-01-11T22:26:10.796Z,84.22
2023-01-11T22:28:57.492Z,83.64
2023-01-11T22:31:25.078Z,83.12
2023-01-11T22:33:51.946Z,83.40
2023-01-11T22:36:19.348Z,83.49
2023-01-11T22:38:46.858Z,83.71
2023-01-11T22:41:14.857Z,84.38
2023-01-11T22:43:43.072Z,85.00
2023-01-11T22:46:15.438Z,84.17
2023-01-11T22:48:42.445Z,84.47
2023-01-11T22:51:10.305Z,83.97
2023-01-11T22:53:41.114Z,84.10
2023-01-11T22:56:08.872Z,85.23
2023-01-11T22:58:38.460Z,85.35
2023-01-11T23:01:54.202Z,84.69
2023-01-11T23:04:20.964Z,84.46
2023-01-11T23:06:47.888Z,83.59
2023-01-11T23:09:16.720Z,83.25
2023-01-11T23:12:02.825Z,83.32
2023-01-11T23:14:33.742Z,83.13
2023-01-11T23:17:07.108Z,83.06
2023-01-11T23:19:38.981Z,83.05
2023-01-11T23:22:06.630Z,82.78
2023-01-11T23:24:33.448Z,83.03
2023-01-11T23:27:00.293Z,83.50
2023-01-11T23:29:27.241Z,82.96
2023-01-11T23:31:54.026Z,82.64
2023-01-11T23:34:20.831Z,82.75
2023-01-11T23:36:47.579Z,82.64
2023-01-11T23:39:15.798Z,82.95
2023-01-11T23:42:01.249Z,83.20
2023-01-11T23:44:27.990Z,83.54
2023-01-11T23:47:13.150Z,83.46
2023-01-11T23:49:39.991Z,83.55
2023-01-11T23:52:06.797Z,83.14
2023-01-11T23:54:34.138Z,83.74
2023-01-11T23:57:01.954Z,83.92
2023-01-11T23:59:28.812Z,84.01
